Time;durP1;ratioP1;P1;durP2;ratioP2;P2;SDS_P1;SDS_P2;PMS_P1;PMS_P2;Temp;Humidity;BMP_temperature;BMP_pressure;BME280_temperature;BME280_humidity;BME280_pressure;Samples;Min_cycle;Max_cycle;Signal;HPM_P1;HPM_P2
2021/01/17 00:00:52;;;;;;;23.48;18.27;;;3.10;99.50;;;;;;2103326;28;20199;-77
2021/01/17 00:01:52;;;;;;;24.17;17.83;;;3.10;99.40;;;;;;2103909;28;20023;-77
2021/01/17 00:02:53;;;;;;;23.95;17.77;;;3.20;99.40;;;;;;2103918;28;20023;-77
2021/01/17 00:03:54;;;;;;;20.20;16.50;;;3.20;99.50;;;;;;2103411;28;20093;-77
2021/01/17 00:04:54;;;;;;;21.85;17.67;;;3.10;99.50;;;;;;2103737;28;20059;-76
2021/01/17 00:05:55;;;;;;;23.27;17.92;;;3.20;99.60;;;;;;2111086;28;20100;-75
2021/01/17 00:06:56;;;;;;;21.55;17.98;;;3.20;99.60;;;;;;2107270;28;20031;-77
2021/01/17 00:08:05;;;;;;;23.08;17.98;;;3.20;99.50;;;;;;2103220;28;20028;-76
2021/01/17 00:09:06;;;;;;;23.23;17.38;;;3.20;99.50;;;;;;2103878;28;20035;-76
2021/01/17 00:10:12;;;;;;;22.00;18.10;;;3.20;99.50;;;;;;2103368;28;20031;-77
2021/01/17 00:11:13;;;;;;;20.90;16.15;;;3.10;99.50;;;;;;2103236;28;20085;-76
2021/01/17 00:12:13;;;;;;;24.67;18.13;;;3.20;99.50;;;;;;2103330;28;20030;-77
2021/01/17 00:13:15;;;;;;;25.40;18.77;;;3.20;99.50;;;;;;2103649;28;20020;-76
2021/01/17 00:14:15;;;;;;;23.10;17.77;;;3.20;99.40;;;;;;2103343;28;20056;-77
2021/01/17 00:15:17;;;;;;;21.42;17.85;;;3.10;99.50;;;;;;2102423;28;20463;-77
2021/01/17 00:16:17;;;;;;;22.40;17.08;;;3.10;99.50;;;;;;2102829;28;20032;-76
2021/01/17 00:17:18;;;;;;;23.52;17.77;;;3.10;99.50;;;;;;2103586;28;20479;-76
2021/01/17 00:18:19;;;;;;;22.23;18.10;;;3.10;99.60;;;;;;2102820;28;20027;-77
2021/01/17 00:19:19;;;;;;;22.40;17.60;;;3.10;99.60;;;;;;2104065;28;20387;-76
2021/01/17 00:20:21;;;;;;;21.90;17.55;;;3.20;99.60;;;;;;2103263;28;20089;-77
2021/01/17 00:21:22;;;;;;;21.83;17.42;;;3.10;99.60;;;;;;2103812;28;20070;-76
2021/01/17 00:22:22;;;;;;;23.67;18.77;;;3.10;99.60;;;;;;2103219;28;20069;-77
2021/01/17 00:23:23;;;;;;;26.17;19.42;;;3.10;99.60;;;;;;2105433;28;20039;-76
2021/01/17 00:24:24;;;;;;;24.17;18.05;;;3.10;99.60;;;;;;2111211;28;20413;-76
2021/01/17 00:25:24;;;;;;;26.98;18.45;;;3.10;99.70;;;;;;2105974;28;20027;-76
2021/01/17 00:26:25;;;;;;;22.15;17.23;;;3.10;99.70;;;;;;2108935;28;20044;-77
2021/01/17 00:27:25;;;;;;;22.95;17.92;;;3.10;99.70;;;;;;2111561;28;20493;-77
2021/01/17 00:28:26;;;;;;;25.20;18.80;;;3.10;99.70;;;;;;2107323;28;20764;-77
2021/01/17 00:29:27;;;;;;;22.33;17.92;;;3.10;99.70;;;;;;2113082;28;20024;-77
2021/01/17 00:30:29;;;;;;;21.95;16.48;;;3.10;99.70;;;;;;2113293;28;20085;-76
2021/01/17 00:31:37;;;;;;;22.92;17.85;;;3.10;99.70;;;;;;2108104;28;20035;-77
2021/01/17 00:32:38;;;;;;;22.65;17.88;;;3.10;99.80;;;;;;2105241;28;20146;-77
2021/01/17 00:33:38;;;;;;;24.70;18.45;;;3.10;99.70;;;;;;2105117;28;20024;-76
2021/01/17 00:34:39;;;;;;;24.77;19.33;;;3.10;99.60;;;;;;2105218;28;20022;-77
2021/01/17 00:35:40;;;;;;;24.42;18.90;;;3.10;99.60;;;;;;2105473;28;20111;-77
2021/01/17 00:36:41;;;;;;;25.90;19.60;;;3.00;99.70;;;;;;2104424;28;20037;-77
2021/01/17 00:37:41;;;;;;;22.52;17.52;;;3.00;99.70;;;;;;2104564;28;20031;-78
2021/01/17 00:38:42;;;;;;;21.40;17.65;;;3.00;99.70;;;;;;2104641;28;20024;-77
2021/01/17 00:39:42;;;;;;;21.73;17.83;;;3.10;99.80;;;;;;2105129;28;20024;-76
2021/01/17 00:40:43;;;;;;;24.85;19.10;;;3.10;99.80;;;;;;2105230;28;20081;-76
2021/01/17 00:41:44;;;;;;;24.17;18.38;;;3.10;99.70;;;;;;2105363;28;20102;-76
2021/01/17 00:42:46;;;;;;;26.02;19.38;;;3.10;99.70;;;;;;2105415;28;20020;-76
2021/01/17 00:43:46;;;;;;;24.88;19.55;;;3.10;99.80;;;;;;2104319;28;20024;-76
2021/01/17 00:44:49;;;;;;;21.88;17.95;;;3.10;99.70;;;;;;2104778;28;20072;-75
2021/01/17 00:45:50;;;;;;;24.63;18.00;;;3.10;99.70;;;;;;2105277;28;20031;-77
2021/01/17 00:46:50;;;;;;;27.60;20.00;;;3.10;99.80;;;;;;2104946;28;20478;-78
2021/01/17 00:47:51;;;;;;;23.13;18.35;;;3.10;99.80;;;;;;2105205;28;20055;-76
2021/01/17 00:48:52;;;;;;;21.45;17.50;;;3.10;99.80;;;;;;2104300;28;20378;-76
2021/01/17 00:49:52;;;;;;;24.35;18.70;;;3.10;99.80;;;;;;2104566;28;20048;-75
2021/01/17 00:50:53;;;;;;;21.90;18.73;;;3.10;99.80;;;;;;2105182;28;20016;-76
2021/01/17 00:51:54;;;;;;;22.77;17.48;;;3.10;99.80;;;;;;2104780;28;20023;-76
2021/01/17 00:52:55;;;;;;;23.30;18.13;;;3.10;99.70;;;;;;2096360;28;20024;-75
2021/01/17 00:53:56;;;;;;;25.05;19.25;;;3.10;99.80;;;;;;2108226;28;20386;-77
2021/01/17 00:54:56;;;;;;;22.33;17.55;;;3.10;99.80;;;;;;2113779;28;20062;-76
2021/01/17 00:55:57;;;;;;;23.70;19.05;;;3.10;99.80;;;;;;2112897;28;20638;-76
2021/01/17 00:57:04;;;;;;;24.42;19.10;;;3.10;99.80;;;;;;2110933;28;20814;-76
2021/01/17 00:58:04;;;;;;;20.25;16.75;;;3.10;99.80;;;;;;2104611;28;20081;-76
2021/01/17 00:59:07;;;;;;;21.35;17.33;;;3.10;99.70;;;;;;2105206;28;20066;-76
2021/01/17 01:00:13;;;;;;;22.50;17.88;;;3.10;99.70;;;;;;2105059;28;20051;-76
2021/01/17 01:01:14;;;;;;;23.30;17.75;;;3.10;99.80;;;;;;2104521;28;20034;-75
2021/01/17 01:02:14;;;;;;;24.27;17.08;;;3.10;99.90;;;;;;2104560;28;20032;-76
2021/01/17 01:03:15;;;;;;;25.27;18.73;;;3.20;99.80;;;;;;2105067;28;20356;-75
2021/01/17 01:04:16;;;;;;;25.35;18.95;;;3.10;99.80;;;;;;2104698;28;20028;-75
2021/01/17 01:05:17;;;;;;;25.08;18.38;;;3.20;99.90;;;;;;2105486;28;20374;-76
2021/01/17 01:06:18;;;;;;;22.02;17.83;;;3.20;99.90;;;;;;2104928;28;20058;-77
2021/01/17 01:07:19;;;;;;;21.83;17.50;;;3.20;99.90;;;;;;2104790;28;20081;-75
2021/01/17 01:08:20;;;;;;;21.15;16.75;;;3.20;99.90;;;;;;2104314;28;20554;-76
2021/01/17 01:09:21;;;;;;;26.98;19.42;;;3.20;99.80;;;;;;2105140;28;20031;-76
2021/01/17 01:10:25;;;;;;;24.65;18.92;;;3.20;99.80;;;;;;2110636;28;20699;-76
2021/01/17 01:11:25;;;;;;;24.38;18.95;;;3.20;99.80;;;;;;2112755;28;20016;-76
2021/01/17 01:12:26;;;;;;;22.75;18.08;;;3.20;99.90;;;;;;2105026;28;20572;-76
2021/01/17 01:13:27;;;;;;;23.27;18.08;;;3.20;99.90;;;;;;2104398;28;20052;-77
2021/01/17 01:14:28;;;;;;;22.50;18.13;;;3.20;99.90;;;;;;2104666;28;20914;-77
2021/01/17 01:15:29;;;;;;;30.10;20.85;;;3.20;99.80;;;;;;2104991;28;20055;-76
2021/01/17 01:16:29;;;;;;;22.38;17.17;;;3.20;99.70;;;;;;2104730;28;20445;-77
2021/01/17 01:17:30;;;;;;;21.90;17.52;;;3.20;99.70;;;;;;2104582;28;20024;-76
2021/01/17 01:18:30;;;;;;;24.23;18.60;;;3.20;99.70;;;;;;2103829;28;20028;-77
2021/01/17 01:19:31;;;;;;;27.48;19.48;;;3.20;99.80;;;;;;2104248;28;20027;-75
2021/01/17 01:20:32;;;;;;;26.95;19.13;;;3.20;99.80;;;;;;2104653;28;20479;-77
2021/01/17 01:21:34;;;;;;;25.20;18.85;;;3.20;99.70;;;;;;2104524;28;20020;-76
2021/01/17 01:22:40;;;;;;;24.70;18.75;;;3.20;99.80;;;;;;2105263;28;20016;-77
2021/01/17 01:23:41;;;;;;;21.80;17.10;;;3.20;99.80;;;;;;2109081;28;20059;-77
2021/01/17 01:24:42;;;;;;;23.67;18.73;;;3.20;99.70;;;;;;2109486;28;20356;-76
2021/01/17 01:25:42;;;;;;;20.45;16.30;;;3.20;99.80;;;;;;2104391;28;20020;-76
2021/01/17 01:26:45;;;;;;;22.77;17.73;;;3.20;99.80;;;;;;2110449;28;20104;-76
2021/01/17 01:27:49;;;;;;;24.13;18.60;;;3.20;99.80;;;;;;2111498;27;20016;-77
2021/01/17 01:28:50;;;;;;;23.08;17.58;;;3.20;99.90;;;;;;2109261;28;20046;-76
2021/01/17 01:29:51;;;;;;;25.90;19.65;;;3.20;99.90;;;;;;2112833;27;20063;-76
2021/01/17 01:30:56;;;;;;;26.63;18.83;;;3.20;99.90;;;;;;2112848;28;20024;-76
2021/01/17 01:31:56;;;;;;;22.65;17.15;;;3.20;99.90;;;;;;2105338;28;20031;-77
2021/01/17 01:32:57;;;;;;;26.48;19.48;;;3.20;99.80;;;;;;2105007;28;20028;-77
2021/01/17 01:33:58;;;;;;;26.55;19.45;;;3.20;99.80;;;;;;2104891;28;20024;-76
2021/01/17 01:34:59;;;;;;;28.15;20.77;;;3.20;99.80;;;;;;2103906;28;20031;-75
2021/01/17 01:35:59;;;;;;;25.52;20.48;;;3.20;99.80;;;;;;2104301;28;20483;-76
2021/01/17 01:37:00;;;;;;;22.63;17.60;;;3.20;99.80;;;;;;2104578;28;20156;-75
2021/01/17 01:38:01;;;;;;;25.08;19.30;;;3.20;99.80;;;;;;2103761;28;20043;-76
2021/01/17 01:39:03;;;;;;;23.23;17.52;;;3.30;99.80;;;;;;2103453;28;20024;-76
2021/01/17 01:40:05;;;;;;;25.23;19.45;;;3.30;99.90;;;;;;2104303;28;20194;-75
2021/01/17 01:41:05;;;;;;;25.52;18.98;;;3.30;99.90;;;;;;2105032;28;20100;-76
2021/01/17 01:42:07;;;;;;;24.45;19.63;;;3.20;99.80;;;;;;2104123;28;20036;-75
2021/01/17 01:43:07;;;;;;;24.58;18.63;;;3.30;99.90;;;;;;2104186;28;20024;-76
2021/01/17 01:44:10;;;;;;;25.88;19.38;;;3.30;99.90;;;;;;2104149;28;20024;-75
2021/01/17 01:45:11;;;;;;;27.33;20.27;;;3.30;99.90;;;;;;2105201;28;20093;-76
2021/01/17 01:46:15;;;;;;;23.90;18.98;;;3.20;99.90;;;;;;2104571;28;20024;-76
2021/01/17 01:47:26;;;;;;;24.63;18.42;;;3.30;99.90;;;;;;2104533;28;20510;-76
2021/01/17 01:48:30;;;;;;;24.25;18.77;;;3.30;99.90;;;;;;2104094;28;20032;-75
2021/01/17 01:49:31;;;;;;;24.90;19.20;;;3.20;99.90;;;;;;2104693;28;20028;-76
2021/01/17 01:50:31;;;;;;;24.92;19.67;;;3.20;99.90;;;;;;2103825;28;20067;-76
2021/01/17 01:51:32;;;;;;;25.77;20.05;;;3.30;99.90;;;;;;2104820;28;20016;-75
2021/01/17 01:52:33;;;;;;;22.00;16.77;;;3.30;99.90;;;;;;2104718;28;20023;-76
2021/01/17 01:53:34;;;;;;;23.27;18.63;;;3.20;99.90;;;;;;2105296;28;20026;-76
2021/01/17 01:54:36;;;;;;;25.23;19.30;;;3.30;99.90;;;;;;2104803;28;20020;-77
2021/01/17 01:55:36;;;;;;;24.75;19.20;;;3.20;99.90;;;;;;2104579;28;20473;-76
2021/01/17 01:56:37;;;;;;;24.92;19.77;;;3.30;99.90;;;;;;2104820;28;20023;-77
2021/01/17 01:57:38;;;;;;;24.55;19.65;;;3.30;99.90;;;;;;2104409;28;20016;-76
2021/01/17 01:58:39;;;;;;;23.63;17.92;;;3.30;99.90;;;;;;2104094;28;20032;-76
2021/01/17 01:59:39;;;;;;;21.40;17.33;;;3.30;99.90;;;;;;2104778;28;20117;-76
2021/01/17 02:00:40;;;;;;;23.48;18.15;;;3.30;99.90;;;;;;2104210;28;20020;-75
2021/01/17 02:01:41;;;;;;;24.33;19.13;;;3.30;99.90;;;;;;2104822;28;20043;-77
2021/01/17 02:02:45;;;;;;;27.05;20.35;;;3.30;99.90;;;;;;2107378;28;20027;-77
2021/01/17 02:03:47;;;;;;;23.83;17.95;;;3.30;99.90;;;;;;2107893;28;20022;-77
2021/01/17 02:04:49;;;;;;;26.60;20.25;;;3.30;99.90;;;;;;2106561;28;20443;-77
2021/01/17 02:05:49;;;;;;;26.88;20.52;;;3.30;99.90;;;;;;2106818;28;20023;-77
2021/01/17 02:07:13;;;;;;;26.10;19.52;;;3.30;99.90;;;;;;2100022;28;20375;-76
2021/01/17 02:08:34;;;;;;;25.13;18.98;;;3.30;99.90;;;;;;2094717;28;20119;-76
2021/01/17 02:09:35;;;;;;;26.27;19.55;;;3.30;99.90;;;;;;2107777;28;20031;-76
2021/01/17 02:10:36;;;;;;;24.38;17.88;;;3.20;99.90;;;;;;2109290;28;20147;-76
2021/01/17 02:11:45;;;;;;;26.67;19.27;;;3.30;99.90;;;;;;2105787;28;20922;-76
2021/01/17 02:13:02;;;;;;;27.20;19.38;;;3.30;99.90;;;;;;2109954;28;20475;-77
2021/01/17 02:14:15;;;;;;;26.02;20.38;;;3.30;99.90;;;;;;2104567;28;20055;-76
2021/01/17 02:15:27;;;;;;;24.83;18.10;;;3.20;99.90;;;;;;2109212;28;20030;-76
2021/01/17 02:16:29;;;;;;;27.33;19.88;;;3.20;99.90;;;;;;2109623;28;20023;-77
2021/01/17 02:17:31;;;;;;;26.25;19.58;;;3.20;99.90;;;;;;2107556;28;20024;-76
2021/01/17 02:18:34;;;;;;;27.08;19.85;;;3.30;99.90;;;;;;2105955;28;20492;-77
2021/01/17 02:19:44;;;;;;;26.58;20.13;;;3.20;99.90;;;;;;2109886;28;20080;-76
2021/01/17 02:20:47;;;;;;;26.27;18.90;;;3.30;99.90;;;;;;2102383;28;20028;-76
2021/01/17 02:21:57;;;;;;;27.33;21.05;;;3.20;99.90;;;;;;2111233;28;20084;-76
2021/01/17 02:23:01;;;;;;;29.23;19.67;;;3.30;99.90;;;;;;2107033;28;20587;-76
2021/01/17 02:24:10;;;;;;;28.10;21.08;;;3.30;99.90;;;;;;2110078;28;20510;-77
2021/01/17 02:25:11;;;;;;;23.38;17.73;;;3.30;99.90;;;;;;2107706;28;20027;-77
2021/01/17 02:26:12;;;;;;;25.65;18.90;;;3.30;99.90;;;;;;2107765;28;20497;-77
2021/01/17 02:27:15;;;;;;;25.15;19.48;;;3.30;99.90;;;;;;2107893;28;20035;-76
2021/01/17 02:28:18;;;;;;;23.75;18.25;;;3.30;99.90;;;;;;2106497;28;20020;-77
2021/01/17 02:29:19;;;;;;;25.00;19.17;;;3.30;99.90;;;;;;2107100;28;20008;-76
2021/01/17 02:30:23;;;;;;;25.33;19.88;;;3.30;99.90;;;;;;2108652;28;20012;-76
2021/01/17 02:31:24;;;;;;;28.02;19.92;;;3.30;99.90;;;;;;2107593;28;20052;-76
2021/01/17 02:32:29;;;;;;;29.50;21.52;;;3.30;99.90;;;;;;2107829;28;20022;-75
2021/01/17 02:33:36;;;;;;;29.35;21.75;;;3.30;99.90;;;;;;2109759;28;20017;-76
2021/01/17 02:34:36;;;;;;;25.40;19.23;;;3.30;99.90;;;;;;2108333;28;20024;-77
2021/01/17 02:35:39;;;;;;;29.80;22.15;;;3.30;99.90;;;;;;2108049;28;20039;-76
2021/01/17 02:36:40;;;;;;;26.98;21.30;;;3.30;99.90;;;;;;2109225;28;20029;-77
2021/01/17 02:38:05;;;;;;;26.15;20.80;;;3.30;99.90;;;;;;2109332;28;20519;-76
2021/01/17 02:39:14;;;;;;;26.73;19.20;;;3.30;99.90;;;;;;2112763;28;20043;-76
2021/01/17 02:40:23;;;;;;;26.75;20.52;;;3.30;99.90;;;;;;2111908;28;20030;-77
2021/01/17 02:41:37;;;;;;;26.23;19.17;;;3.30;99.90;;;;;;2112407;28;20061;-77
2021/01/17 02:42:39;;;;;;;25.50;18.20;;;3.30;99.90;;;;;;2110532;28;20024;-77
2021/01/17 02:43:42;;;;;;;26.48;19.15;;;3.30;99.90;;;;;;2103547;28;20037;-77
2021/01/17 02:44:43;;;;;;;27.45;21.58;;;3.30;99.90;;;;;;2104220;28;20024;-76
2021/01/17 02:45:44;;;;;;;25.08;20.52;;;3.30;99.90;;;;;;2104383;28;20450;-78
2021/01/17 02:46:45;;;;;;;29.52;22.58;;;3.30;99.90;;;;;;2105312;28;20019;-76
2021/01/17 02:47:46;;;;;;;32.53;22.50;;;3.30;99.90;;;;;;2105034;28;20027;-76
2021/01/17 02:48:46;;;;;;;30.75;22.63;;;3.30;99.90;;;;;;2098316;28;20066;-76
2021/01/17 02:49:47;;;;;;;23.88;18.63;;;3.30;99.90;;;;;;2099534;28;20044;-77
2021/01/17 02:50:48;;;;;;;26.50;20.15;;;3.30;99.90;;;;;;2105370;28;20095;-77
2021/01/17 02:51:49;;;;;;;28.08;21.25;;;3.30;99.90;;;;;;2107752;28;20500;-76
2021/01/17 02:52:59;;;;;;;27.73;21.30;;;3.30;99.90;;;;;;2105656;28;20075;-76
2021/01/17 02:54:07;;;;;;;27.67;20.83;;;3.30;99.90;;;;;;2105922;28;20017;-77
2021/01/17 02:55:09;;;;;;;24.70;18.02;;;3.30;99.90;;;;;;2108826;28;20030;-77
2021/01/17 02:56:16;;;;;;;24.27;18.85;;;3.30;99.90;;;;;;2104317;28;20024;-76
2021/01/17 02:57:22;;;;;;;26.55;20.73;;;3.30;99.90;;;;;;2103541;28;20016;-77
2021/01/17 02:58:25;;;;;;;33.17;23.15;;;3.30;99.90;;;;;;2103421;28;20020;-78
2021/01/17 02:59:33;;;;;;;27.73;21.27;;;3.30;99.90;;;;;;2104370;28;20073;-77
2021/01/17 03:00:35;;;;;;;30.63;22.50;;;3.30;99.90;;;;;;2103087;28;20019;-77
2021/01/17 03:01:38;;;;;;;26.77;20.25;;;3.30;99.90;;;;;;2104302;28;20072;-77
2021/01/17 03:02:43;;;;;;;29.80;21.73;;;3.30;99.90;;;;;;2104896;28;20095;-77
2021/01/17 03:03:47;;;;;;;30.85;22.55;;;3.30;99.90;;;;;;2104836;28;20386;-77
2021/01/17 03:05:03;;;;;;;26.80;21.27;;;3.30;99.90;;;;;;2104475;28;20024;-78
2021/01/17 03:06:09;;;;;;;26.20;19.75;;;3.20;99.90;;;;;;2104326;28;20077;-77
2021/01/17 03:07:12;;;;;;;25.48;20.00;;;3.20;99.90;;;;;;2103799;28;20031;-77
2021/01/17 03:08:13;;;;;;;29.90;20.80;;;3.20;99.90;;;;;;2104059;28;20447;-77
2021/01/17 03:09:14;;;;;;;31.13;21.42;;;3.30;99.90;;;;;;2095882;28;20032;-76
2021/01/17 03:10:15;;;;;;;23.92;19.35;;;3.30;99.90;;;;;;2104154;28;20095;-77
2021/01/17 03:11:16;;;;;;;26.45;20.58;;;3.30;99.90;;;;;;2105136;28;20032;-77
2021/01/17 03:12:17;;;;;;;27.55;20.08;;;3.30;99.90;;;;;;2105029;28;20048;-76
2021/01/17 03:13:18;;;;;;;28.48;21.38;;;3.30;99.90;;;;;;2105129;28;20107;-77
2021/01/17 03:14:19;;;;;;;29.42;21.70;;;3.30;99.90;;;;;;2104183;28;20085;-76
2021/01/17 03:15:20;;;;;;;25.77;18.13;;;3.30;99.90;;;;;;2103879;28;20081;-75
2021/01/17 03:16:21;;;;;;;27.90;20.80;;;3.30;99.90;;;;;;2105169;28;20028;-75
2021/01/17 03:17:21;;;;;;;28.92;21.58;;;3.30;99.90;;;;;;2104057;28;20049;-77
2021/01/17 03:18:22;;;;;;;27.73;20.45;;;3.30;99.90;;;;;;2104340;28;20576;-78
2021/01/17 03:19:23;;;;;;;27.73;21.13;;;3.30;99.90;;;;;;2105210;28;20020;-76
2021/01/17 03:20:23;;;;;;;25.67;20.35;;;3.30;99.90;;;;;;2104406;28;20475;-76
2021/01/17 03:21:24;;;;;;;26.02;19.27;;;3.30;99.90;;;;;;2105796;28;20838;-76
2021/01/17 03:22:24;;;;;;;25.90;20.77;;;3.30;99.90;;;;;;2114160;28;20031;-76
2021/01/17 03:23:25;;;;;;;26.27;20.55;;;3.30;99.90;;;;;;2109408;28;20031;-77
2021/01/17 03:24:26;;;;;;;28.15;21.60;;;3.30;99.90;;;;;;2111904;28;20128;-76
2021/01/17 03:25:26;;;;;;;26.48;20.65;;;3.30;99.90;;;;;;2105244;28;20024;-75
2021/01/17 03:26:28;;;;;;;26.98;20.85;;;3.30;99.90;;;;;;2105372;28;20550;-76
2021/01/17 03:27:28;;;;;;;29.00;21.60;;;3.30;99.90;;;;;;2104959;28;20039;-75
2021/01/17 03:28:29;;;;;;;28.55;21.30;;;3.40;99.90;;;;;;2104982;28;20035;-75
2021/01/17 03:29:29;;;;;;;25.42;19.83;;;3.30;99.90;;;;;;2105358;28;20096;-76
2021/01/17 03:30:30;;;;;;;25.90;19.33;;;3.30;99.90;;;;;;2105544;28;20016;-76
2021/01/17 03:31:30;;;;;;;25.33;20.05;;;3.30;99.90;;;;;;2104497;28;20035;-76
2021/01/17 03:32:31;;;;;;;28.08;21.13;;;3.30;99.90;;;;;;2104910;28;20525;-75
2021/01/17 03:33:31;;;;;;;27.55;21.63;;;3.30;99.90;;;;;;2105520;28;20060;-75
2021/01/17 03:34:32;;;;;;;25.23;19.63;;;3.30;99.90;;;;;;2107884;28;20059;-77
2021/01/17 03:35:33;;;;;;;28.55;20.95;;;3.30;99.90;;;;;;2113609;28;20064;-77
2021/01/17 03:36:33;;;;;;;29.30;21.58;;;3.30;99.90;;;;;;2109782;28;20065;-76
2021/01/17 03:37:34;;;;;;;29.40;22.73;;;3.30;99.90;;;;;;2113228;28;20035;-77
2021/01/17 03:38:35;;;;;;;28.23;21.38;;;3.30;99.90;;;;;;2113411;28;20084;-78
2021/01/17 03:39:35;;;;;;;26.77;21.58;;;3.30;99.90;;;;;;2107196;27;20024;-77
2021/01/17 03:40:36;;;;;;;28.40;22.23;;;3.30;99.90;;;;;;2104778;28;20383;-76
2021/01/17 03:41:36;;;;;;;27.70;21.88;;;3.30;99.90;;;;;;2105700;28;20077;-77
2021/01/17 03:42:37;;;;;;;29.85;22.25;;;3.30;99.90;;;;;;2105040;28;20020;-76
2021/01/17 03:43:37;;;;;;;28.58;21.67;;;3.20;99.90;;;;;;2105428;28;20077;-77
2021/01/17 03:44:39;;;;;;;31.88;21.52;;;3.30;99.90;;;;;;2096183;28;20052;-76
2021/01/17 03:45:39;;;;;;;30.10;21.75;;;3.20;99.90;;;;;;2104761;28;20078;-76
2021/01/17 03:46:40;;;;;;;26.27;19.77;;;3.30;99.90;;;;;;2104483;28;20016;-77
2021/01/17 03:47:41;;;;;;;28.60;21.48;;;3.30;99.90;;;;;;2105132;28;20055;-77
2021/01/17 03:48:41;;;;;;;27.48;21.13;;;3.30;99.90;;;;;;2104864;28;20039;-75
2021/01/17 03:49:42;;;;;;;29.00;21.85;;;3.30;99.90;;;;;;2104947;28;20020;-76
2021/01/17 03:50:42;;;;;;;24.98;19.73;;;3.30;99.90;;;;;;2104570;28;20593;-75
2021/01/17 03:51:43;;;;;;;27.27;19.88;;;3.30;99.90;;;;;;2105661;28;20020;-76
2021/01/17 03:52:43;;;;;;;30.23;22.27;;;3.30;99.90;;;;;;2105091;28;20016;-77
2021/01/17 03:53:44;;;;;;;28.58;21.90;;;3.30;99.90;;;;;;2105363;28;20018;-75
2021/01/17 03:54:45;;;;;;;27.20;20.63;;;3.30;99.90;;;;;;2105213;28;20016;-76
2021/01/17 03:55:45;;;;;;;28.02;20.48;;;3.30;99.90;;;;;;2105260;28;20051;-75
2021/01/17 03:56:46;;;;;;;28.42;20.70;;;3.30;99.90;;;;;;2104456;28;20032;-75
2021/01/17 03:57:47;;;;;;;28.95;21.30;;;3.30;99.90;;;;;;2105506;28;20051;-77
2021/01/17 03:58:47;;;;;;;28.25;20.02;;;3.30;99.90;;;;;;2104925;28;20355;-77
2021/01/17 03:59:48;;;;;;;28.85;21.58;;;3.30;99.90;;;;;;2105520;28;20016;-76
2021/01/17 04:00:49;;;;;;;27.88;21.35;;;3.30;99.90;;;;;;2104922;28;20031;-75
2021/01/17 04:01:51;;;;;;;27.65;21.35;;;3.30;99.90;;;;;;2104856;28;20492;-75
2021/01/17 04:02:51;;;;;;;27.67;21.00;;;3.30;99.90;;;;;;2103797;28;20084;-76
2021/01/17 04:03:56;;;;;;;29.42;22.40;;;3.30;99.90;;;;;;2109346;28;20077;-77
2021/01/17 04:04:57;;;;;;;29.55;22.13;;;3.30;99.90;;;;;;2111495;28;20047;-75
2021/01/17 04:05:57;;;;;;;29.85;22.20;;;3.30;99.90;;;;;;2095292;28;20032;-76
2021/01/17 04:06:58;;;;;;;25.88;20.33;;;3.30;99.90;;;;;;2103206;28;20127;-76
2021/01/17 04:07:59;;;;;;;26.17;19.48;;;3.30;99.90;;;;;;2104519;28;20028;-76
2021/01/17 04:08:59;;;;;;;31.38;21.98;;;3.30;99.90;;;;;;2104360;28;20095;-75
2021/01/17 04:10:00;;;;;;;28.77;22.17;;;3.30;99.90;;;;;;2104448;28;20052;-76
2021/01/17 04:11:01;;;;;;;30.55;22.58;;;3.30;99.90;;;;;;2103321;28;20116;-76
2021/01/17 04:12:01;;;;;;;28.45;21.17;;;3.30;99.90;;;;;;2104213;28;20081;-76
2021/01/17 04:13:02;;;;;;;28.73;21.25;;;3.30;99.90;;;;;;2103470;28;20036;-76
2021/01/17 04:14:02;;;;;;;27.83;21.15;;;3.30;99.90;;;;;;2103473;28;20051;-76
2021/01/17 04:15:03;;;;;;;30.73;22.30;;;3.30;99.90;;;;;;2103451;28;20092;-76
2021/01/17 04:16:04;;;;;;;30.25;23.00;;;3.20;99.90;;;;;;2103102;28;20126;-77
2021/01/17 04:17:05;;;;;;;30.90;22.02;;;3.30;99.90;;;;;;2103039;28;20028;-77
2021/01/17 04:18:06;;;;;;;28.08;22.10;;;3.30;99.90;;;;;;2109252;28;20047;-76
2021/01/17 04:19:06;;;;;;;30.85;22.52;;;3.30;99.90;;;;;;2111590;28;20032;-76
2021/01/17 04:20:07;;;;;;;29.45;22.42;;;3.30;99.90;;;;;;2107700;28;20123;-75
2021/01/17 04:21:08;;;;;;;33.78;23.25;;;3.30;99.90;;;;;;2110393;28;20038;-76
2021/01/17 04:22:09;;;;;;;27.20;20.88;;;3.30;99.90;;;;;;2112450;28;20020;-76
2021/01/17 04:23:10;;;;;;;30.05;23.00;;;3.30;99.90;;;;;;2109043;28;20032;-76
2021/01/17 04:24:11;;;;;;;31.60;23.00;;;3.30;99.90;;;;;;2111683;28;20043;-76
2021/01/17 04:25:11;;;;;;;29.08;21.48;;;3.30;99.90;;;;;;2105615;28;20111;-76
2021/01/17 04:26:12;;;;;;;31.70;23.27;;;3.30;99.90;;;;;;2110530;28;20088;-76
2021/01/17 04:27:13;;;;;;;26.73;21.50;;;3.30;99.90;;;;;;2102758;28;20030;-77
2021/01/17 04:28:13;;;;;;;35.20;24.35;;;3.30;99.90;;;;;;2107199;28;20047;-77
2021/01/17 04:29:14;;;;;;;33.15;24.20;;;3.30;99.90;;;;;;2112476;28;20019;-77
2021/01/17 04:30:15;;;;;;;31.73;22.85;;;3.30;99.90;;;;;;2106395;28;20032;-76
2021/01/17 04:31:16;;;;;;;29.95;22.52;;;3.30;99.90;;;;;;2111306;28;20035;-76
2021/01/17 04:32:16;;;;;;;31.00;22.65;;;3.30;99.90;;;;;;2111371;28;20090;-76
2021/01/17 04:33:18;;;;;;;32.55;24.17;;;3.30;99.90;;;;;;2105399;28;20485;-75
2021/01/17 04:34:19;;;;;;;34.30;23.27;;;3.30;99.90;;;;;;2110026;28;20038;-76
2021/01/17 04:35:19;;;;;;;32.65;23.88;;;3.30;99.90;;;;;;2103955;28;20640;-77
2021/01/17 04:36:20;;;;;;;29.35;21.55;;;3.40;99.90;;;;;;2103681;28;20024;-77
2021/01/17 04:37:22;;;;;;;33.78;24.30;;;3.30;99.90;;;;;;2103273;28;20036;-75
2021/01/17 04:38:22;;;;;;;32.28;24.33;;;3.30;99.90;;;;;;2103506;28;20024;-74
2021/01/17 04:39:23;;;;;;;35.30;24.42;;;3.30;99.90;;;;;;2107154;28;20138;-77
2021/01/17 04:40:26;;;;;;;32.70;24.65;;;3.30;99.90;;;;;;2112588;28;20088;-76
2021/01/17 04:41:28;;;;;;;32.47;22.88;;;3.30;99.90;;;;;;2105295;28;20050;-78
2021/01/17 04:42:34;;;;;;;32.22;24.13;;;3.30;99.90;;;;;;2103840;28;20024;-74
2021/01/17 04:43:56;;;;;;;30.15;22.08;;;3.30;99.90;;;;;;2103898;28;20482;-76
2021/01/17 04:45:06;;;;;;;30.80;23.48;;;3.40;99.90;;;;;;2103999;28;20034;-77
2021/01/17 04:46:09;;;;;;;33.63;23.83;;;3.30;99.90;;;;;;2103223;28;20097;-77
2021/01/17 04:47:12;;;;;;;31.70;22.63;;;3.30;99.90;;;;;;2102669;28;20477;-76
2021/01/17 04:48:13;;;;;;;32.97;24.02;;;3.30;99.90;;;;;;2103850;28;20048;-78
2021/01/17 04:49:19;;;;;;;35.03;23.92;;;3.40;99.90;;;;;;2107414;28;20042;-76
2021/01/17 04:50:21;;;;;;;34.47;23.15;;;3.30;99.90;;;;;;2104528;28;21101;-77
2021/01/17 04:51:24;;;;;;;31.60;23.08;;;3.30;99.90;;;;;;2103570;28;20032;-76
2021/01/17 04:52:28;;;;;;;35.38;24.38;;;3.40;99.90;;;;;;2104059;28;20162;-76
2021/01/17 04:53:33;;;;;;;35.03;24.40;;;3.30;99.90;;;;;;2103927;28;20024;-76
2021/01/17 04:54:34;;;;;;;37.83;25.38;;;3.30;99.90;;;;;;2104235;28;20111;-75
2021/01/17 04:55:36;;;;;;;32.22;22.88;;;3.30;99.90;;;;;;2107502;28;20012;-75
2021/01/17 04:56:52;;;;;;;35.75;25.73;;;3.30;99.90;;;;;;2112514;28;20016;-75
2021/01/17 04:58:15;;;;;;;34.78;25.25;;;3.30;99.90;;;;;;2112701;28;20020;-75
2021/01/17 04:59:24;;;;;;;36.60;24.10;;;3.30;99.90;;;;;;2104091;28;20024;-75
2021/01/17 05:00:29;;;;;;;33.78;23.73;;;3.30;99.90;;;;;;2104126;28;20019;-75
2021/01/17 05:01:45;;;;;;;36.67;25.15;;;3.30;99.90;;;;;;2103594;28;20012;-75
2021/01/17 05:03:19;;;;;;;36.78;26.00;;;3.30;99.90;;;;;;2104288;28;20459;-75
2021/01/17 05:04:48;;;;;;;37.38;24.67;;;3.20;99.90;;;;;;2103952;28;20063;-76
2021/01/17 05:06:05;;;;;;;30.77;20.30;;;3.20;99.90;;;;;;2103081;28;20028;-76
2021/01/17 05:07:22;;;;;;;32.58;23.17;;;3.20;99.90;;;;;;2102930;28;20024;-76
2021/01/17 05:08:25;;;;;;;33.28;24.50;;;3.20;99.90;;;;;;2102919;28;20028;-76
2021/01/17 05:09:31;;;;;;;35.50;23.75;;;3.20;99.90;;;;;;2103169;28;20463;-78
2021/01/17 05:10:37;;;;;;;35.35;24.50;;;3.20;99.90;;;;;;2103524;28;20034;-77
2021/01/17 05:11:41;;;;;;;37.65;25.67;;;3.20;99.90;;;;;;2103253;28;20024;-76
2021/01/17 05:12:53;;;;;;;36.63;24.55;;;3.30;99.90;;;;;;2104024;28;20031;-76
2021/01/17 05:14:09;;;;;;;37.75;24.88;;;3.30;99.90;;;;;;2104114;28;20028;-76
2021/01/17 05:15:10;;;;;;;37.92;26.30;;;3.30;99.90;;;;;;2104719;28;20063;-77
2021/01/17 05:16:10;;;;;;;38.33;25.33;;;3.20;99.90;;;;;;2104692;28;20499;-76
2021/01/17 05:17:20;;;;;;;33.88;22.65;;;3.20;99.90;;;;;;2104248;28;20028;-76
2021/01/17 05:18:22;;;;;;;36.55;24.42;;;3.20;99.90;;;;;;2104251;28;20051;-76
2021/01/17 05:19:23;;;;;;;36.20;25.13;;;3.20;99.90;;;;;;2105467;28;20047;-77
2021/01/17 05:20:24;;;;;;;37.03;24.45;;;3.20;99.90;;;;;;2105498;28;20036;-77
2021/01/17 05:21:26;;;;;;;38.17;25.95;;;3.30;99.90;;;;;;2106101;28;20103;-77
2021/01/17 05:22:30;;;;;;;35.88;25.27;;;3.30;99.90;;;;;;2107217;28;20399;-76